Time;durP1;ratioP1;P1;durP2;ratioP2;P2;SDS_P1;SDS_P2;PMS_P1;PMS_P2;Temp;Humidity;BMP_temperature;BMP_pressure;BME280_temperature;BME280_humidity;BME280_pressure;Samples;Min_cycle;Max_cycle;Signal;HPM_P1;HPM_P2
2022/04/24 00:00:44;;;;;;;17.35;6.60;;;;;;;12.50;49.10;100048.75;5050458;28;20040;-80
2022/04/24 00:03:09;;;;;;;19.67;6.75;;;;;;;12.46;49.24;100046.50;5051596;28;20033;-80
2022/04/24 00:05:34;;;;;;;18.63;6.57;;;;;;;12.40;49.85;100048.78;5049249;28;20080;-80
2022/04/24 00:08:00;;;;;;;14.40;6.00;;;;;;;12.36;50.00;100049.22;5060726;28;20460;-80
2022/04/24 00:10:25;;;;;;;18.52;5.75;;;;;;;12.31;50.43;100044.25;5069656;28;20395;-80
2022/04/24 00:12:51;;;;;;;16.52;6.15;;;;;;;12.27;51.04;100044.66;5057451;28;20017;-80
2022/04/24 00:15:16;;;;;;;15.50;5.75;;;;;;;12.21;51.18;100040.72;5064187;28;20526;-80
2022/04/24 00:17:41;;;;;;;18.13;6.63;;;;;;;12.15;50.87;100044.84;5059676;28;20449;-80
2022/04/24 00:20:07;;;;;;;17.05;6.60;;;;;;;12.09;51.17;100034.63;5050570;28;20431;-80
2022/04/24 00:22:33;;;;;;;17.90;7.25;;;;;;;12.02;52.19;100047.81;5047735;28;20064;-80
2022/04/24 00:24:58;;;;;;;18.08;6.35;;;;;;;11.96;51.73;100040.31;5049521;28;20029;-80
2022/04/24 00:27:23;;;;;;;17.67;6.55;;;;;;;11.91;51.02;100034.47;5065064;28;20033;-80
2022/04/24 00:29:49;;;;;;;18.48;7.20;;;;;;;11.84;51.47;100028.78;5049862;28;20029;-80
2022/04/24 00:32:14;;;;;;;20.33;7.18;;;;;;;11.79;52.00;100027.53;5069901;28;20422;-80
2022/04/24 00:34:40;;;;;;;17.30;6.63;;;;;;;11.72;52.17;100022.66;5070040;28;20060;-81
2022/04/24 00:37:06;;;;;;;18.25;6.60;;;;;;;11.68;52.50;100031.16;5062165;28;20035;-80
2022/04/24 00:39:31;;;;;;;18.33;6.75;;;;;;;11.63;53.08;100025.38;5053636;28;20049;-80
2022/04/24 00:41:56;;;;;;;16.85;6.85;;;;;;;11.58;53.57;100027.63;5052550;28;20029;-80
2022/04/24 00:44:22;;;;;;;19.13;7.25;;;;;;;11.48;53.11;100028.47;5051747;28;20028;-80
2022/04/24 00:46:47;;;;;;;17.17;6.15;;;;;;;11.43;53.10;100033.41;5056062;28;20027;-80
2022/04/24 00:49:13;;;;;;;19.13;7.60;;;;;;;11.37;52.61;100026.72;5063487;28;20027;-81
2022/04/24 00:51:39;;;;;;;17.90;7.22;;;;;;;11.32;53.04;100028.16;5054546;28;20033;-80
2022/04/24 00:54:10;;;;;;;18.45;6.97;;;;;;;11.27;54.33;100022.31;5054579;28;20049;-80
2022/04/24 00:56:38;;;;;;;19.30;7.50;;;;;;;11.22;53.99;100030.81;5066760;28;20378;-81
2022/04/24 00:59:05;;;;;;;15.43;6.35;;;;;;;11.13;54.11;100023.56;5061489;28;20045;-80
2022/04/24 01:01:32;;;;;;;24.88;7.07;;;;;;;11.11;54.04;100028.22;5051862;28;20094;-81
2022/04/24 01:04:00;;;;;;;17.38;6.65;;;;;;;11.06;53.37;100031.31;5057770;28;20036;-80
2022/04/24 01:06:27;;;;;;;17.60;6.35;;;;;;;10.99;56.02;100032.84;5073288;28;20365;-80
2022/04/24 01:08:53;;;;;;;18.25;6.78;;;;;;;10.96;54.70;100025.03;5062981;28;20368;-80
2022/04/24 01:11:18;;;;;;;17.52;7.05;;;;;;;10.87;56.53;100020.50;5055547;28;20115;-80
2022/04/24 01:13:44;;;;;;;16.98;7.43;;;;;;;10.81;55.96;100028.09;5053395;28;20397;-80
2022/04/24 01:16:09;;;;;;;18.35;6.88;;;;;;;10.79;55.56;100029.19;5065632;28;20048;-80
2022/04/24 01:18:36;;;;;;;18.55;7.63;;;;;;;10.72;56.43;100028.91;5082722;28;20097;-80
2022/04/24 01:21:08;;;;;;;18.70;7.28;;;;;;;10.69;55.26;100029.19;5071333;28;20025;-80
2022/04/24 01:23:34;;;;;;;19.10;7.22;;;;;;;10.66;55.52;100029.44;5060635;28;20107;-80
2022/04/24 01:25:59;;;;;;;17.88;7.30;;;;;;;10.61;55.80;100032.50;5058474;28;20117;-80
2022/04/24 01:28:24;;;;;;;19.40;7.25;;;;;;;10.59;56.33;100037.19;5067783;28;20046;-80
2022/04/24 01:30:49;;;;;;;17.70;7.38;;;;;;;10.57;56.62;100035.59;5051160;28;20151;-80
2022/04/24 01:33:15;;;;;;;19.27;7.22;;;;;;;10.55;56.85;100034.88;5052552;28;20025;-80
2022/04/24 01:35:40;;;;;;;16.92;7.18;;;;;;;10.53;57.13;100032.34;5059739;28;20024;-80
2022/04/24 01:38:05;;;;;;;18.98;7.30;;;;;;;10.52;55.63;100036.00;5058700;28;20330;-80
2022/04/24 01:40:30;;;;;;;18.40;6.75;;;;;;;10.53;55.72;100034.16;5048788;28;20060;-80
2022/04/24 01:42:56;;;;;;;18.25;7.53;;;;;;;10.51;57.32;100030.75;5052353;28;20029;-80
2022/04/24 01:45:21;;;;;;;20.65;7.53;;;;;;;10.47;56.33;100028.34;5053766;28;20108;-80
2022/04/24 01:47:46;;;;;;;16.92;6.75;;;;;;;10.45;56.71;100024.06;5055601;28;20039;-80
2022/04/24 01:50:11;;;;;;;19.45;8.35;;;;;;;10.46;56.44;100031.16;5051007;28;20051;-80
2022/04/24 01:52:37;;;;;;;18.95;7.97;;;;;;;10.42;57.20;100030.56;5056412;28;20456;-80
2022/04/24 01:55:02;;;;;;;16.60;6.53;;;;;;;10.43;56.53;100029.59;5069220;28;20110;-80
2022/04/24 01:57:27;;;;;;;17.02;6.60;;;;;;;10.41;56.56;100033.38;5070583;28;20029;-80
2022/04/24 01:59:53;;;;;;;18.15;7.40;;;;;;;10.40;56.13;100031.69;5061930;28;20079;-80
2022/04/24 02:02:18;;;;;;;20.63;7.95;;;;;;;10.38;57.39;100029.16;5057115;28;20116;-80
2022/04/24 02:04:44;;;;;;;18.45;7.13;;;;;;;10.37;56.63;100030.13;5034369;28;20071;-79
2022/04/24 02:07:09;;;;;;;20.40;7.22;;;;;;;10.31;58.12;100030.63;5059859;28;20516;-79
2022/04/24 02:09:35;;;;;;;19.02;7.75;;;;;;;10.27;56.95;100030.00;5065066;28;20383;-80
2022/04/24 02:12:00;;;;;;;17.85;7.38;;;;;;;10.23;58.99;100027.72;5057826;28;20028;-80
2022/04/24 02:14:26;;;;;;;20.77;8.18;;;;;;;10.19;58.12;100035.19;5054792;28;20120;-80
2022/04/24 02:16:51;;;;;;;19.48;7.80;;;;;;;10.18;57.50;100029.97;5060735;28;20495;-79
2022/04/24 02:19:16;;;;;;;22.05;7.70;;;;;;;10.12;58.15;100031.31;5055523;28;20095;-80
2022/04/24 02:21:41;;;;;;;17.52;7.30;;;;;;;10.09;57.60;100027.06;5064552;28;20028;-80
2022/04/24 02:24:07;;;;;;;18.73;7.75;;;;;;;10.05;58.16;100030.97;5060511;28;20113;-79
2022/04/24 02:26:32;;;;;;;20.85;7.53;;;;;;;10.03;58.02;100035.63;5062822;28;20403;-80
2022/04/24 02:28:58;;;;;;;18.55;7.43;;;;;;;10.04;58.30;100031.94;5049498;28;20052;-79
2022/04/24 02:31:23;;;;;;;18.73;7.50;;;;;;;10.04;58.30;100029.28;5054069;28;20032;-80
2022/04/24 02:33:49;;;;;;;17.77;6.95;;;;;;;10.04;58.59;100029.28;5052071;28;20389;-79
2022/04/24 02:36:14;;;;;;;19.30;7.97;;;;;;;10.06;57.75;100021.97;5064366;28;20035;-79
2022/04/24 02:38:39;;;;;;;17.85;7.25;;;;;;;10.07;57.99;100029.03;5054532;28;20128;-80
2022/04/24 02:41:05;;;;;;;18.85;7.35;;;;;;;10.07;58.11;100033.53;5071037;28;20045;-80
2022/04/24 02:43:31;;;;;;;20.33;8.25;;;;;;;10.09;57.24;100036.97;5069494;28;20028;-80
2022/04/24 02:45:56;;;;;;;17.38;7.50;;;;;;;10.09;58.29;100037.81;5069811;28;20112;-79
2022/04/24 02:48:22;;;;;;;19.27;8.10;;;;;;;10.14;57.63;100029.34;5074447;28;20093;-79
2022/04/24 02:50:47;;;;;;;19.02;8.13;;;;;;;10.15;57.39;100025.69;5051553;28;20029;-80
2022/04/24 02:53:14;;;;;;;19.48;8.73;;;;;;;10.17;57.51;100028.25;5057168;28;20020;-80
2022/04/24 02:55:40;;;;;;;20.95;8.32;;;;;;;10.19;57.96;100031.66;5071355;28;20025;-80
2022/04/24 02:58:05;;;;;;;20.30;7.90;;;;;;;10.20;57.85;100036.88;5060600;28;20044;-80
2022/04/24 03:00:42;;;;;;;20.13;8.27;;;;;;;10.19;57.09;100035.19;5057686;28;20029;-79
2022/04/24 03:03:08;;;;;;;23.75;8.13;;;;;;;10.21;57.53;100032.38;5049388;28;20048;-79
2022/04/24 03:05:34;;;;;;;19.33;8.55;;;;;;;10.20;57.76;100033.34;5065463;28;20032;-80
2022/04/24 03:07:59;;;;;;;20.75;8.60;;;;;;;10.21;57.28;100035.91;5067922;28;20039;-79
2022/04/24 03:10:25;;;;;;;19.17;8.40;;;;;;;10.22;57.61;100036.75;5061049;28;20037;-80
2022/04/24 03:12:50;;;;;;;20.00;8.50;;;;;;;10.23;57.52;100033.94;5053869;28;20059;-80
2022/04/24 03:15:16;;;;;;;20.65;8.65;;;;;;;10.25;57.36;100039.16;5060924;28;20063;-79
2022/04/24 03:17:42;;;;;;;21.20;8.50;;;;;;;10.21;57.40;100043.13;5055671;28;20028;-80
2022/04/24 03:20:09;;;;;;;21.10;9.13;;;;;;;10.19;58.14;100037.00;5060438;28;20383;-80
2022/04/24 03:22:35;;;;;;;23.58;9.13;;;;;;;10.15;57.82;100039.97;5064017;28;20075;-80
2022/04/24 03:25:00;;;;;;;20.10;10.00;;;;;;;10.14;57.91;100035.56;5063479;28;20055;-80
2022/04/24 03:27:26;;;;;;;22.10;8.77;;;;;;;10.08;58.02;100038.78;5051121;28;20036;-80
2022/04/24 03:29:51;;;;;;;21.20;8.93;;;;;;;10.04;58.13;100037.31;5049016;28;20032;-80
2022/04/24 03:32:16;;;;;;;21.67;9.40;;;;;;;10.00;57.97;100035.03;5048872;28;20135;-80
2022/04/24 03:34:42;;;;;;;21.17;10.02;;;;;;;9.92;58.43;100035.69;5050799;28;20052;-79
2022/04/24 03:37:07;;;;;;;21.70;9.45;;;;;;;9.86;58.94;100047.78;5050560;28;20025;-80
2022/04/24 03:39:33;;;;;;;20.60;9.68;;;;;;;9.79;59.00;100036.72;5049377;28;20053;-80
2022/04/24 03:41:58;;;;;;;20.10;8.23;;;;;;;9.72;58.82;100038.22;5050619;28;20052;-80
2022/04/24 03:44:23;;;;;;;21.10;10.15;;;;;;;9.70;59.25;100042.00;5049234;28;20052;-80
2022/04/24 03:46:49;;;;;;;20.05;9.07;;;;;;;9.64;59.26;100040.66;5055492;28;20028;-80
2022/04/24 03:49:14;;;;;;;21.10;9.93;;;;;;;9.58;59.55;100036.66;5089859;28;20039;-79
2022/04/24 03:51:40;;;;;;;22.20;9.18;;;;;;;9.53;60.74;100040.69;5089184;28;20023;-79
2022/04/24 03:54:05;;;;;;;19.90;9.60;;;;;;;9.47;60.05;100036.66;5088702;28;20059;-80
2022/04/24 03:56:31;;;;;;;20.08;8.38;;;;;;;9.41;59.87;100037.19;5090676;28;20024;-79
2022/04/24 03:59:00;;;;;;;20.17;9.25;;;;;;;9.37;60.68;100041.94;5089320;28;20024;-79
2022/04/24 04:01:25;;;;;;;20.38;9.63;;;;;;;9.30;60.73;100048.78;5090801;28;20085;-79
2022/04/24 04:03:51;;;;;;;20.23;9.82;;;;;;;9.26;61.71;100041.97;5090479;28;20126;-79
2022/04/24 04:06:16;;;;;;;25.08;9.90;;;;;;;9.23;61.49;100042.22;5089044;28;20020;-79
2022/04/24 04:08:42;;;;;;;21.00;10.32;;;;;;;9.16;61.85;100041.84;5090392;28;20028;-79
2022/04/24 04:11:08;;;;;;;22.10;10.05;;;;;;;9.12;62.12;100039.53;5088412;28;20027;-79
2022/04/24 04:13:34;;;;;;;21.08;9.60;;;;;;;9.03;62.38;100038.44;5088761;28;20510;-79
2022/04/24 04:15:59;;;;;;;20.63;9.25;;;;;;;8.99;62.57;100040.53;5088554;28;20024;-80
2022/04/24 04:18:24;;;;;;;21.77;9.43;;;;;;;8.90;63.04;100047.47;5089060;28;20035;-80
2022/04/24 04:20:50;;;;;;;20.77;9.20;;;;;;;8.88;62.72;100046.72;5090519;28;20036;-80
2022/04/24 04:23:15;;;;;;;20.90;10.43;;;;;;;8.83;63.70;100053.41;5092714;28;20027;-80
2022/04/24 04:25:40;;;;;;;19.75;9.68;;;;;;;8.81;63.86;100055.38;5084303;28;20151;-80
2022/04/24 04:28:06;;;;;;;20.67;9.38;;;;;;;8.76;64.33;100055.75;5074418;28;20024;-80
2022/04/24 04:30:31;;;;;;;21.65;10.52;;;;;;;8.74;63.44;100055.84;5074234;28;20040;-80
2022/04/24 04:32:56;;;;;;;21.02;10.15;;;;;;;8.71;64.23;100052.56;5072771;28;20024;-80
2022/04/24 04:35:23;;;;;;;19.85;8.65;;;;;;;8.67;64.06;100062.66;5072869;28;20036;-79
2022/04/24 04:37:49;;;;;;;22.48;10.43;;;;;;;8.67;64.80;100065.34;5072520;28;20032;-79
2022/04/24 04:40:16;;;;;;;22.20;9.50;;;;;;;8.64;64.92;100064.72;5072438;28;20085;-79
2022/04/24 04:42:41;;;;;;;21.83;10.60;;;;;;;8.60;65.59;100066.78;5074222;28;20055;-80
2022/04/24 04:45:07;;;;;;;21.20;9.75;;;;;;;8.60;64.90;100064.13;5072729;28;20055;-80
2022/04/24 04:47:32;;;;;;;20.40;9.65;;;;;;;8.60;65.11;100074.00;5082952;28;20035;-79
2022/04/24 04:49:57;;;;;;;22.67;9.25;;;;;;;8.61;65.27;100071.19;5094406;28;20028;-80
2022/04/24 04:52:23;;;;;;;21.02;9.25;;;;;;;8.61;65.34;100076.53;5092761;28;20395;-80
2022/04/24 04:54:49;;;;;;;20.98;9.60;;;;;;;8.61;65.47;100076.53;5094113;28;20024;-80
2022/04/24 04:57:15;;;;;;;22.25;9.85;;;;;;;8.64;65.61;100075.44;5092744;28;20026;-80
2022/04/24 04:59:40;;;;;;;21.20;8.88;;;;;;;8.63;65.45;100079.09;5092649;28;20024;-80
2022/04/24 05:02:06;;;;;;;20.90;9.98;;;;;;;8.65;65.64;100072.63;5093850;28;20031;-80
2022/04/24 05:04:31;;;;;;;21.65;9.25;;;;;;;8.67;65.79;100073.38;5087042;28;20035;-79
2022/04/24 05:06:56;;;;;;;20.45;9.32;;;;;;;8.69;65.63;100078.63;5073442;28;20053;-79
2022/04/24 05:09:21;;;;;;;22.27;9.98;;;;;;;8.68;66.16;100087.63;5073471;28;20032;-80
2022/04/24 05:11:47;;;;;;;20.48;9.52;;;;;;;8.69;65.30;100092.00;5073447;28;20469;-80
2022/04/24 05:14:13;;;;;;;22.80;9.75;;;;;;;8.68;66.09;100085.81;5073819;28;20039;-80
2022/04/24 05:16:38;;;;;;;18.63;8.70;;;;;;;8.71;65.94;100098.09;5074550;28;20470;-79
2022/04/24 05:19:06;;;;;;;22.73;9.32;;;;;;;8.71;65.96;100101.66;5092139;28;20094;-79
2022/04/24 05:21:31;;;;;;;18.70;8.18;;;;;;;8.73;65.50;100102.38;5093263;28;20398;-80
2022/04/24 05:23:56;;;;;;;20.13;9.38;;;;;;;8.78;65.43;100103.84;5091400;28;20222;-79
2022/04/24 05:26:22;;;;;;;20.98;10.13;;;;;;;8.81;65.18;100104.44;5091404;28;20028;-80
2022/04/24 05:28:47;;;;;;;21.30;9.40;;;;;;;8.84;65.37;100104.19;5092868;28;20034;-79
2022/04/24 05:31:13;;;;;;;20.33;8.77;;;;;;;8.87;65.52;100105.78;5091720;28;20088;-80
2022/04/24 05:33:38;;;;;;;20.55;9.18;;;;;;;8.92;65.75;100107.16;5091899;28;20016;-80
2022/04/24 05:36:05;;;;;;;22.67;9.23;;;;;;;8.95;64.74;100100.69;5093204;28;20067;-80
2022/04/24 05:38:31;;;;;;;22.17;9.90;;;;;;;8.99;65.38;100104.84;5093257;28;20020;-80
2022/04/24 05:40:57;;;;;;;21.75;9.32;;;;;;;9.03;65.35;100114.34;5093238;28;20130;-80
2022/04/24 05:43:22;;;;;;;20.00;8.75;;;;;;;9.04;65.25;100110.69;5091596;28;20107;-79
2022/04/24 05:45:47;;;;;;;21.48;9.38;;;;;;;9.07;66.18;100109.59;5092942;28;20024;-79
2022/04/24 05:48:12;;;;;;;20.80;8.52;;;;;;;9.08;65.63;100106.78;5091461;28;20432;-80
2022/04/24 05:50:37;;;;;;;19.95;9.18;;;;;;;9.12;65.13;100114.59;5092797;28;20227;-80
2022/04/24 05:53:03;;;;;;;21.00;8.30;;;;;;;9.16;64.74;100113.38;5090755;28;20080;-81
2022/04/24 05:55:28;;;;;;;20.92;9.07;;;;;;;9.18;64.24;100117.66;5072555;28;20055;-80
2022/04/24 05:57:53;;;;;;;20.60;8.65;;;;;;;9.23;64.54;100122.66;5054525;28;20077;-80
2022/04/24 06:00:20;;;;;;;18.98;8.20;;;;;;;9.25;64.81;100129.59;5072662;28;20024;-80
2022/04/24 06:02:46;;;;;;;20.60;9.80;;;;;;;9.31;63.93;100122.88;5072224;28;20028;-80
2022/04/24 06:05:11;;;;;;;22.63;9.23;;;;;;;9.35;63.66;100121.66;5071091;28;20077;-80
2022/04/24 06:07:37;;;;;;;21.58;8.68;;;;;;;9.38;63.36;100124.09;5072386;28;20407;-80
2022/04/24 06:10:04;;;;;;;22.63;9.32;;;;;;;9.43;63.86;100127.25;5070895;28;20028;-79
2022/04/24 06:12:29;;;;;;;20.48;9.02;;;;;;;9.48;63.86;100139.47;5072372;28;20048;-80
2022/04/24 06:14:54;;;;;;;23.40;8.25;;;;;;;9.50;63.52;100126.78;5070905;28;20113;-80
2022/04/24 06:17:19;;;;;;;20.42;8.50;;;;;;;9.55;63.99;100136.16;5077785;28;20056;-80
2022/04/24 06:19:45;;;;;;;20.60;9.23;;;;;;;9.59;63.33;100137.63;5090968;28;20437;-80
2022/04/24 06:22:10;;;;;;;20.65;9.27;;;;;;;9.64;62.22;100131.03;5092125;28;20103;-80
2022/04/24 06:24:35;;;;;;;21.42;9.10;;;;;;;9.68;63.35;100129.78;5089738;28;20037;-80
2022/04/24 06:27:01;;;;;;;20.92;8.75;;;;;;;9.71;62.08;100135.78;5070554;28;20040;-79
2022/04/24 06:29:27;;;;;;;21.23;9.05;;;;;;;9.75;63.10;100137.22;5072132;28;20400;-80
2022/04/24 06:31:52;;;;;;;18.90;7.78;;;;;;;9.80;64.02;100131.50;5070437;28;20579;-80
2022/04/24 06:34:17;;;;;;;23.27;9.32;;;;;;;9.86;63.78;100124.78;5071884;28;20138;-80
2022/04/24 06:36:42;;;;;;;19.63;8.18;;;;;;;9.92;63.10;100137.69;5071740;28;20407;-80
2022/04/24 06:39:08;;;;;;;22.10;8.82;;;;;;;10.00;64.16;100140.59;5071427;28;20036;-80
2022/04/24 06:41:33;;;;;;;20.27;8.50;;;;;;;10.04;61.98;100141.19;5071795;28;20106;-80
2022/04/24 06:43:58;;;;;;;20.90;8.82;;;;;;;10.08;62.30;100140.78;5071295;28;20035;-80
2022/04/24 06:46:23;;;;;;;21.25;9.25;;;;;;;10.12;61.38;100128.00;5071360;28;20055;-80
2022/04/24 06:48:49;;;;;;;20.70;9.07;;;;;;;10.17;61.78;100136.50;5091311;28;20031;-80
2022/04/24 06:51:15;;;;;;;20.25;9.07;;;;;;;10.22;61.50;100136.09;5091695;28;20099;-80
2022/04/24 06:53:40;;;;;;;20.65;9.18;;;;;;;10.28;61.21;100149.88;5091524;28;20032;-80
2022/04/24 06:56:05;;;;;;;21.17;7.75;;;;;;;10.32;59.81;100142.41;5090362;28;20032;-80
2022/04/24 06:58:31;;;;;;;18.88;7.63;;;;;;;10.37;60.73;100147.47;5091632;28;20044;-81
2022/04/24 07:00:56;;;;;;;18.92;8.50;;;;;;;10.43;61.63;100147.78;5090178;28;20024;-81
2022/04/24 07:03:22;;;;;;;18.40;8.73;;;;;;;10.48;61.07;100156.31;5091476;28;20384;-80
2022/04/24 07:05:49;;;;;;;19.95;8.35;;;;;;;10.53;60.01;100147.88;5074074;28;20082;-80
2022/04/24 07:08:15;;;;;;;21.27;8.48;;;;;;;10.58;59.70;100151.00;5071134;28;20031;-81
2022/04/24 07:10:41;;;;;;;22.65;9.40;;;;;;;10.62;59.47;100138.19;5071133;28;20454;-80
2022/04/24 07:13:06;;;;;;;23.02;8.95;;;;;;;10.68;59.90;100139.50;5069646;28;20161;-80
2022/04/24 07:15:34;;;;;;;21.60;8.57;;;;;;;10.75;60.35;100140.69;5069793;28;20097;-80
2022/04/24 07:18:01;;;;;;;20.10;8.45;;;;;;;10.81;59.52;100146.38;5082559;28;20027;-80
2022/04/24 07:20:28;;;;;;;22.73;9.18;;;;;;;10.92;60.67;100147.28;5089822;28;20024;-80
2022/04/24 07:22:58;;;;;;;22.58;8.85;;;;;;;11.00;59.15;100148.31;5089484;28;20491;-80
2022/04/24 07:25:25;;;;;;;20.58;8.93;;;;;;;11.07;58.37;100148.66;5091235;28;20055;-80
2022/04/24 07:27:51;;;;;;;20.23;9.32;;;;;;;11.14;58.72;100155.22;5091376;28;20444;-80
2022/04/24 07:30:18;;;;;;;21.42;9.05;;;;;;;11.19;57.57;100149.41;5089609;28;20031;-80
2022/04/24 07:32:49;;;;;;;19.98;9.40;;;;;;;11.26;57.76;100155.09;5090833;28;20032;-80
2022/04/24 07:35:17;;;;;;;21.05;8.60;;;;;;;11.34;59.34;100163.38;5089646;28;20016;-80
2022/04/24 07:37:43;;;;;;;20.33;9.38;;;;;;;11.39;57.90;100163.81;5091034;28;20050;-80
2022/04/24 07:40:10;;;;;;;20.70;9.40;;;;;;;11.46;57.68;100150.66;5090975;28;20079;-80
2022/04/24 07:42:50;;;;;;;21.40;8.77;;;;;;;11.54;58.43;100159.75;5089327;28;20130;-80
2022/04/24 07:45:20;;;;;;;20.00;9.32;;;;;;;11.58;56.02;100167.56;5089510;28;20114;-80
2022/04/24 07:47:46;;;;;;;21.50;9.27;;;;;;;11.66;57.73;100159.66;5088960;28;20024;-81
2022/04/24 07:50:13;;;;;;;20.38;9.57;;;;;;;11.72;57.90;100159.13;5089725;28;20028;-81
2022/04/24 07:52:38;;;;;;;20.27;10.00;;;;;;;11.77;57.48;100164.97;5090685;28;20428;-80
2022/04/24 07:55:04;;;;;;;21.83;9.65;;;;;;;11.83;57.24;100160.84;5069274;28;20032;-80
2022/04/24 07:57:29;;;;;;;21.27;9.43;;;;;;;11.89;56.67;100163.84;5048174;28;20032;-80
2022/04/24 07:59:55;;;;;;;21.25;9.73;;;;;;;11.95;56.21;100164.28;5050401;28;20395;-81
2022/04/24 08:02:20;;;;;;;20.17;8.88;;;;;;;11.97;54.85;100167.72;5048858;28;20052;-80
2022/04/24 08:04:45;;;;;;;19.92;8.60;;;;;;;12.02;56.26;100160.94;5050412;28;20025;-80
2022/04/24 08:07:10;;;;;;;19.67;8.57;;;;;;;12.11;57.87;100170.03;5050214;28;20040;-80
2022/04/24 08:09:35;;;;;;;21.00;9.43;;;;;;;12.15;54.44;100173.28;5050311;28;20032;-80
2022/04/24 08:12:01;;;;;;;20.55;8.60;;;;;;;12.19;55.19;100172.84;5048779;28;20086;-80
2022/04/24 08:14:26;;;;;;;21.17;9.68;;;;;;;12.27;55.68;100182.94;5048885;28;20453;-80
2022/04/24 08:16:51;;;;;;;22.05;9.82;;;;;;;12.30;53.77;100171.03;5055086;28;20035;-81
2022/04/24 08:19:17;;;;;;;21.08;9.48;;;;;;;12.35;54.68;100171.47;5088946;28;20351;-81
2022/04/24 08:21:42;;;;;;;20.50;9.43;;;;;;;12.44;56.42;100173.31;5090233;28;20078;-81
2022/04/24 08:24:07;;;;;;;21.90;10.30;;;;;;;12.48;54.90;100168.50;5091046;28;20032;-80
2022/04/24 08:26:32;;;;;;;24.45;10.68;;;;;;;12.54;53.94;100173.31;5072910;28;20032;-80
2022/04/24 08:28:58;;;;;;;21.05;9.70;;;;;;;12.59;53.53;100171.91;5068742;28;20032;-80
2022/04/24 08:31:23;;;;;;;21.10;9.52;;;;;;;12.66;54.65;100172.16;5070070;28;20064;-81
2022/04/24 08:33:50;;;;;;;22.70;10.45;;;;;;;12.73;55.31;100178.69;5068647;28;20016;-80
2022/04/24 08:36:15;;;;;;;22.63;10.07;;;;;;;12.82;55.57;100176.13;5068485;28;20040;-81
2022/04/24 08:38:40;;;;;;;22.83;11.05;;;;;;;12.87;52.53;100169.31;5068615;28;20449;-81
2022/04/24 08:41:08;;;;;;;21.67;10.52;;;;;;;12.93;53.23;100176.00;5069814;28;20048;-81
2022/04/24 08:43:33;;;;;;;21.88;10.48;;;;;;;12.96;51.74;100174.81;5069703;28;20386;-81
2022/04/24 08:45:58;;;;;;;21.08;10.60;;;;;;;13.02;53.77;100183.19;5068310;28;20017;-81
2022/04/24 08:48:24;;;;;;;21.80;10.63;;;;;;;13.09;54.86;100170.84;5068470;28;20088;-81
2022/04/24 08:50:49;;;;;;;22.65;10.77;;;;;;;13.18;54.56;100179.91;5069812;28;20024;-80
2022/04/24 08:53:15;;;;;;;22.65;9.82;;;;;;;13.26;54.25;100182.69;5069948;28;20096;-80
2022/04/24 08:55:41;;;;;;;21.48;10.77;;;;;;;13.32;52.84;100178.56;5069857;28;20024;-80
2022/04/24 08:58:06;;;;;;;22.13;10.50;;;;;;;13.35;50.92;100186.41;5068392;28;20093;-81
2022/04/24 09:00:33;;;;;;;20.75;11.02;;;;;;;13.41;51.37;100185.84;5069989;28;20524;-81
2022/04/24 09:02:58;;;;;;;23.10;11.20;;;;;;;13.52;53.54;100195.59;5051613;28;20031;-81
2022/04/24 09:05:24;;;;;;;20.88;9.82;;;;;;;13.60;52.69;100181.34;5070212;28;20396;-81
2022/04/24 09:07:53;;;;;;;23.02;11.52;;;;;;;13.67;50.89;100182.44;5069452;28;20020;-81
2022/04/24 09:10:19;;;;;;;21.03;10.47;;;;;;;13.72;51.72;100184.69;5072172;28;20082;-81
2022/04/24 09:12:51;;;;;;;22.25;10.90;;;;;;;13.80;51.66;100188.34;5073463;28;20025;-81
2022/04/24 09:15:18;;;;;;;21.48;10.90;;;;;;;13.87;50.76;100188.63;5058881;28;20445;-81
2022/04/24 09:17:43;;;;;;;23.67;12.30;;;;;;;13.94;50.84;100192.41;5053608;28;20028;-81
2022/04/24 09:20:17;;;;;;;22.33;11.18;;;;;;;14.03;51.40;100190.66;5051858;28;20083;-81
2022/04/24 09:22:42;;;;;;;20.33;10.20;;;;;;;14.10;52.27;100188.19;5051563;28;20033;-81
2022/04/24 09:25:10;;;;;;;23.60;11.65;;;;;;;14.18;52.26;100195.56;5053320;28;20075;-81
2022/04/24 09:27:35;;;;;;;22.88;10.43;;;;;;;14.14;47.77;100192.28;5051637;28;20029;-81
2022/04/24 09:30:15;;;;;;;22.13;10.93;;;;;;;14.19;50.23;100195.41;5053031;28;20104;-81
2022/04/24 09:32:49;;;;;;;25.05;10.73;;;;;;;14.24;49.92;100201.19;5052897;28;20086;-80
2022/04/24 09:35:36;;;;;;;21.80;10.27;;;;;;;14.27;49.37;100200.88;5035294;28;20555;-81
2022/04/24 09:38:10;;;;;;;21.15;11.18;;;;;;;14.36;51.04;100187.47;5035239;28;20033;-81
2022/04/24 09:40:44;;;;;;;30.23;11.32;;;;;;;14.47;51.38;100189.94;5051316;28;20064;-81
2022/04/24 09:43:14;;;;;;;21.63;11.05;;;;;;;14.54;49.48;100191.03;5051494;28;20040;-81
2022/04/24 09:45:40;;;;;;;;;;;;;;;14.54;50.16;100185.63;5053372;28;20469;-81
2022/04/24 09:48:16;;;;;;;23.40;11.88;;;;;;;14.60;50.35;100179.59;5059866;28;19919;-81
2022/04/24 09:50:42;;;;;;;22.50;11.30;;;;;;;14.64;47.50;100186.44;5069026;28;20039;-81
2022/04/24 09:53:13;;;;;;;22.90;11.43;;;;;;;14.70;49.59;100182.25;5072158;28;20100;-81
2022/04/24 09:55:40;;;;;;;22.05;11.02;;;;;;;14.75;51.14;100177.22;5052370;28;20033;-81
2022/04/24 09:58:08;;;;;;;22.40;11.75;;;;;;;14.88;51.27;100186.78;5051433;28;20025;-80
2022/04/24 10:00:34;;;;;;;21.10;11.10;;;;;;;14.90;48.03;100182.91;5049915;28;20036;-81
2022/04/24 10:03:01;;;;;;;23.13;11.63;;;;;;;14.97;51.42;100178.56;5071042;28;20058;-80
2022/04/24 10:05:28;;;;;;;22.70;11.80;;;;;;;15.05;50.37;100185.03;5052495;28;20136;-81
2022/04/24 10:07:54;;;;;;;22.88;10.35;;;;;;;15.11;48.26;100187.97;5051541;28;20021;-81
2022/04/24 10:10:19;;;;;;;21.98;10.27;;;;;;;15.18;49.24;100180.94;5050563;28;20040;-81
2022/04/24 10:12:48;;;;;;;23.70;12.50;;;;;;;15.24;49.15;100179.41;5052493;28;20025;-81
2022/04/24 10:15:16;;;;;;;22.75;11.65;;;;;;;15.24;46.61;100192.94;5052310;28;20468;-81
2022/04/24 10:18:08;;;;;;;24.40;12.88;;;;;;;15.22;46.91;100186.84;5071154;28;20028;-81
2022/04/24 10:20:57;;;;;;;24.00;12.15;;;;;;;15.23;48.15;100185.84;5068921;28;20047;-81
2022/04/24 10:23:30;;;;;;;;;;;;;;;15.27;49.30;100180.97;5070063;28;20462;-81
2022/04/24 10:25:55;;;;;;;23.13;12.20;;;;;;;15.37;49.46;100187.97;5052973;28;19916;-81
2022/04/24 10:28:21;;;;;;;23.15;12.10;;;;;;;15.37;46.80;100193.41;5069507;28;20029;-81
2022/04/24 10:31:01;;;;;;;22.65;11.35;;;;;;;15.45;49.42;100199.88;5052581;28;20273;-81
2022/04/24 10:33:28;;;;;;;22.02;11.68;;;;;;;15.43;44.37;100196.47;5052690;28;20037;-81
2022/04/24 10:35:57;;;;;;;21.88;11.35;;;;;;;15.46;48.11;100197.00;5069281;28;20066;-77
2022/04/24 10:38:24;;;;;;;24.02;12.18;;;;;;;15.43;44.60;100191.03;5069294;28;20499;-77
2022/04/24 10:41:00;;;;;;;22.30;10.63;;;;;;;15.49;46.73;100188.56;5069098;28;20510;-77
2022/04/24 10:43:25;;;;;;;22.58;11.18;;;;;;;15.55;46.63;100187.91;5044666;28;20055;-77
2022/04/24 10:45:52;;;;;;;22.67;11.23;;;;;;;15.63;48.29;100192.50;5049123;28;20033;-77
2022/04/24 10:48:17;;;;;;;24.38;10.05;;;;;;;15.67;45.55;100193.88;5063995;28;20115;-77
2022/04/24 10:50:47;;;;;;;22.15;10.68;;;;;;;15.72;45.64;100191.56;5068803;28;20135;-77
2022/04/24 10:53:12;;;;;;;27.35;11.05;;;;;;;15.77;45.47;100190.19;5068945;28;20039;-77
2022/04/24 10:55:38;;;;;;;19.75;8.68;;;;;;;15.81;45.23;100199.72;5069221;28;20030;-77
2022/04/24 10:58:05;;;;;;;20.45;9.77;;;;;;;15.84;45.71;100197.56;5085323;28;20495;-77
2022/04/24 11:00:34;;;;;;;22.73;9.65;;;;;;;15.84;46.58;100194.84;5073746;28;20085;-77
2022/04/24 11:03:13;;;;;;;19.77;9.50;;;;;;;15.86;46.14;100190.09;5089987;28;20020;-78
2022/04/24 11:05:41;;;;;;;20.20;9.40;;;;;;;15.87;44.13;100196.38;5091432;28;20023;-77
2022/04/24 11:08:07;;;;;;;20.70;9.95;;;;;;;15.96;45.33;100195.41;5091547;28;20273;-77
2022/04/24 11:10:43;;;;;;;23.38;9.43;;;;;;;15.96;44.52;100198.13;5089973;28;20027;-77
2022/04/24 11:13:19;;;;;;;19.98;9.00;;;;;;;16.02;45.04;100196.63;5073067;28;20081;-77